createdAt,value
2023-03-03T00:00:38.882Z,92.69
2023-03-03T00:03:14.081Z,93.40
2023-03-03T00:05:45.574Z,92.74
2023-03-03T00:08:18.816Z,93.62
2023-03-03T00:10:50.336Z,93.18
2023-03-03T00:13:24.443Z,93.83
2023-03-03T00:16:12.654Z,93.77
2023-03-03T00:18:46.958Z,93.33
2023-03-03T00:21:25.957Z,93.45
2023-03-03T00:24:37.990Z,92.80
2023-03-03T00:27:27.372Z,92.59
2023-03-03T00:30:00.813Z,93.41
2023-03-03T00:32:44.062Z,93.41
2023-03-03T00:35:30.084Z,94.01
2023-03-03T00:38:10.928Z,93.56
2023-03-03T00:40:42.620Z,93.47
2023-03-03T00:43:25.726Z,93.45
2023-03-03T00:45:57.536Z,93.04
2023-03-03T00:48:38.050Z,93.84
2023-03-03T00:51:31.663Z,93.08
2023-03-03T00:54:03.060Z,93.18
2023-03-03T00:56:34.315Z,93.56
2023-03-03T00:59:05.605Z,94.00
2023-03-03T01:01:36.930Z,94.22
2023-03-03T01:04:08.321Z,93.12
2023-03-03T01:06:39.665Z,93.95
2023-03-03T01:09:10.932Z,92.97
2023-03-03T01:11:42.500Z,94.20
2023-03-03T01:14:14.100Z,93.65
2023-03-03T01:16:45.397Z,93.64
2023-03-03T01:19:16.916Z,93.81
2023-03-03T01:21:48.254Z,94.00
2023-03-03T01:24:19.693Z,93.57
2023-03-03T01:26:51.031Z,93.95
2023-03-03T01:29:22.347Z,93.51
2023-03-03T01:31:54.693Z,93.52
2023-03-03T01:34:26.082Z,93.70
2023-03-03T01:36:57.380Z,94.08
2023-03-03T01:39:28.665Z,93.89
2023-03-03T01:42:00.111Z,94.03
2023-03-03T01:44:31.386Z,93.74
2023-03-03T01:47:17.422Z,94.20
2023-03-03T01:49:58.404Z,94.11
2023-03-03T01:52:46.900Z,93.46
2023-03-03T01:55:25.439Z,93.92
2023-03-03T01:58:01.767Z,94.07
2023-03-03T02:00:35.991Z,94.08
2023-03-03T02:03:07.679Z,94.48
2023-03-03T02:05:41.989Z,93.79
2023-03-03T02:08:17.630Z,93.77
2023-03-03T02:10:48.983Z,94.18
2023-03-03T02:13:20.370Z,94.20
2023-03-03T02:15:51.799Z,94.13
2023-03-03T02:18:23.194Z,94.19
2023-03-03T02:21:07.821Z,94.11
2023-03-03T02:23:57.438Z,94.04
2023-03-03T02:26:31.798Z,94.47
2023-03-03T02:29:03.924Z,94.33
2023-03-03T02:31:35.581Z,93.80
2023-03-03T02:34:06.951Z,93.78
2023-03-03T02:36:39.550Z,94.28
2023-03-03T02:39:19.106Z,93.95
2023-03-03T02:42:28.819Z,93.80
2023-03-03T02:45:00.204Z,94.40
2023-03-03T02:47:31.460Z,93.95
2023-03-03T02:50:02.772Z,94.81
2023-03-03T02:52:34.030Z,94.47
2023-03-03T02:55:05.936Z,94.43
2023-03-03T02:57:37.180Z,94.05
2023-03-03T03:00:09.131Z,94.77
2023-03-03T03:02:40.399Z,94.10
2023-03-03T03:05:11.772Z,94.08
2023-03-03T03:07:43.021Z,93.87
2023-03-03T03:10:14.647Z,94.70
2023-03-03T03:12:45.932Z,94.62
2023-03-03T03:15:17.196Z,94.89
2023-03-03T03:17:48.451Z,94.70
2023-03-03T03:20:19.743Z,94.75
2023-03-03T03:22:51.038Z,94.38
2023-03-03T03:25:22.327Z,94.58
2023-03-03T03:27:53.603Z,94.83
2023-03-03T03:30:24.949Z,94.37
2023-03-03T03:32:56.203Z,94.80
2023-03-03T03:35:28.389Z,94.47
2023-03-03T03:37:59.687Z,94.13
2023-03-03T03:40:31.049Z,94.75
2023-03-03T03:43:02.312Z,94.43
2023-03-03T03:45:33.870Z,94.80
2023-03-03T03:48:05.363Z,94.83
2023-03-03T03:50:36.977Z,94.81
2023-03-03T03:53:09.357Z,94.89
2023-03-03T03:55:40.716Z,94.81
2023-03-03T03:58:14.427Z,95.05
2023-03-03T04:00:46.678Z,95.21
2023-03-03T04:03:18.212Z,94.74
2023-03-03T04:05:52.628Z,94.57
2023-03-03T04:08:23.949Z,94.75
2023-03-03T04:10:55.219Z,95.21
2023-03-03T04:13:28.859Z,94.59
2023-03-03T04:16:01.048Z,94.74
2023-03-03T04:18:32.459Z,94.85
2023-03-03T04:21:04.556Z,94.92
2023-03-03T04:23:35.813Z,95.05
2023-03-03T04:26:08.243Z,95.19
2023-03-03T04:28:39.556Z,95.59
2023-03-03T04:31:11.117Z,94.84
2023-03-03T04:33:42.422Z,95.09
2023-03-03T04:36:13.713Z,95.27
2023-03-03T04:38:45.169Z,94.79
2023-03-03T04:41:16.898Z,95.16
2023-03-03T04:43:48.169Z,95.05
2023-03-03T04:46:19.747Z,95.06
2023-03-03T04:48:51.319Z,94.82
2023-03-03T04:51:23.095Z,95.15
2023-03-03T04:53:54.408Z,95.12
2023-03-03T04:56:25.684Z,95.37
2023-03-03T04:58:57.516Z,94.88
2023-03-03T05:01:28.843Z,94.82
2023-03-03T05:04:00.127Z,94.46
2023-03-03T05:06:31.392Z,95.00
2023-03-03T05:09:02.762Z,95.08
2023-03-03T05:11:34.028Z,94.62
2023-03-03T05:14:05.298Z,94.91
2023-03-03T05:16:36.663Z,95.39
2023-03-03T05:19:08.009Z,95.21
2023-03-03T05:21:42.689Z,95.38
2023-03-03T05:24:14.527Z,94.92
2023-03-03T05:26:46.010Z,95.07
2023-03-03T05:29:17.377Z,95.34
2023-03-03T05:31:48.719Z,95.43
2023-03-03T05:34:20.092Z,95.23
2023-03-03T05:36:51.668Z,94.80
2023-03-03T05:39:23.394Z,94.70
2023-03-03T05:41:55.865Z,95.27
2023-03-03T05:44:27.946Z,94.65
2023-03-03T05:46:59.498Z,95.13
2023-03-03T05:49:30.821Z,94.95
2023-03-03T05:52:02.253Z,94.69
2023-03-03T05:54:33.645Z,95.33
2023-03-03T05:57:04.914Z,95.69
2023-03-03T05:59:36.195Z,94.90
2023-03-03T06:02:07.709Z,94.96
2023-03-03T06:04:39.865Z,95.17
2023-03-03T06:07:11.139Z,95.43
2023-03-03T06:09:42.539Z,95.22
2023-03-03T06:12:14.110Z,94.70
2023-03-03T06:14:45.472Z,95.10
2023-03-03T06:17:16.985Z,95.03
2023-03-03T06:19:48.475Z,95.12
2023-03-03T06:22:19.791Z,95.11
2023-03-03T06:24:52.524Z,95.06
2023-03-03T06:27:23.924Z,94.81
2023-03-03T06:29:55.288Z,94.80
2023-03-03T06:32:26.810Z,94.82
2023-03-03T06:34:58.247Z,94.56
2023-03-03T06:37:29.643Z,94.50
2023-03-03T06:40:00.915Z,95.15
2023-03-03T06:42:32.251Z,94.42
2023-03-03T06:45:03.984Z,94.68
2023-03-03T06:47:35.389Z,94.99
2023-03-03T06:50:07.515Z,94.59
2023-03-03T06:52:38.983Z,94.70
2023-03-03T06:55:13.727Z,95.14
2023-03-03T06:57:45.047Z,95.03
2023-03-03T07:00:24.475Z,94.72
2023-03-03T07:03:08.211Z,95.15
2023-03-03T07:05:39.758Z,94.93
2023-03-03T07:08:17.022Z,94.78
2023-03-03T07:10:49.553Z,94.84
2023-03-03T07:13:26.799Z,95.05
2023-03-03T07:16:02.226Z,95.02
2023-03-03T07:18:51.075Z,95.02
2023-03-03T07:21:33.061Z,95.17
2023-03-03T07:24:27.567Z,94.70
2023-03-03T07:27:19.192Z,94.76
2023-03-03T07:29:52.566Z,95.00
2023-03-03T07:32:34.959Z,95.05
2023-03-03T07:35:26.879Z,94.79
2023-03-03T07:37:59.289Z,94.64
2023-03-03T07:40:33.743Z,94.93
2023-03-03T07:43:29.283Z,95.32
2023-03-03T07:46:09.768Z,94.69
2023-03-03T07:48:42.750Z,95.28
2023-03-03T07:51:28.924Z,94.81
2023-03-03T07:54:35.746Z,95.02
2023-03-03T07:57:10.092Z,95.06
2023-03-03T07:59:53.290Z,94.66
2023-03-03T08:02:33.400Z,94.36
2023-03-03T08:05:30.871Z,94.46
2023-03-03T08:08:16.248Z,94.67
2023-03-03T08:10:53.062Z,95.08
2023-03-03T08:13:29.040Z,94.68
2023-03-03T08:16:09.658Z,95.06
2023-03-03T08:18:47.680Z,95.08
2023-03-03T08:21:20.682Z,95.13
2023-03-03T08:23:53.508Z,95.06
2023-03-03T08:26:25.649Z,94.56
2023-03-03T08:28:57.218Z,94.90
2023-03-03T08:31:40.845Z,94.17
2023-03-03T08:34:13.160Z,94.22
2023-03-03T08:36:44.576Z,95.17
2023-03-03T08:39:16.062Z,94.39
2023-03-03T08:41:47.799Z,94.46
2023-03-03T08:44:20.488Z,94.40
2023-03-03T08:46:51.898Z,94.05
2023-03-03T08:49:23.213Z,93.82
2023-03-03T08:51:55.460Z,93.54
2023-03-03T08:54:26.844Z,93.67
2023-03-03T08:56:58.123Z,93.82
2023-03-03T08:59:29.404Z,93.54
2023-03-03T09:02:00.887Z,94.50
2023-03-03T09:04:32.288Z,94.17
2023-03-03T09:07:03.661Z,93.61
2023-03-03T09:09:37.250Z,93.01
2023-03-03T09:12:33.966Z,93.15
2023-03-03T09:15:43.189Z,93.13
2023-03-03T09:18:18.693Z,94.04
2023-03-03T09:20:54.824Z,93.55
2023-03-03T09:24:11.269Z,93.63
2023-03-03T09:26:48.608Z,93.05
2023-03-03T09:29:26.095Z,93.18
2023-03-03T09:31:58.669Z,93.55
2023-03-03T09:34:35.954Z,93.86
2023-03-03T09:37:26.390Z,93.63
2023-03-03T09:39:58.353Z,93.00
2023-03-03T09:42:42.921Z,92.35
2023-03-03T09:45:26.749Z,91.91
2023-03-03T09:48:14.646Z,91.89
2023-03-03T09:51:12.837Z,91.97
2023-03-03T09:54:03.066Z,92.17
2023-03-03T09:56:42.560Z,92.16
2023-03-03T09:59:32.511Z,91.45
2023-03-03T10:02:31.432Z,91.03
2023-03-03T10:05:32.927Z,91.13
2023-03-03T10:08:27.086Z,90.60
2023-03-03T10:11:46.368Z,90.21
2023-03-03T10:14:29.784Z,90.04
2023-03-03T10:17:09.617Z,90.00
2023-03-03T10:20:09.533Z,89.98
2023-03-03T10:22:49.826Z,89.94
2023-03-03T10:25:53.476Z,90.15
2023-03-03T10:28:54.539Z,89.98
2023-03-03T10:31:46.846Z,90.20
2023-03-03T10:34:37.397Z,90.33
2023-03-03T10:37:47.601Z,90.11
2023-03-03T10:40:45.379Z,89.54
2023-03-03T10:43:35.308Z,89.22
2023-03-03T10:46:38.888Z,89.27
2023-03-03T10:49:34.693Z,89.66
2023-03-03T10:52:22.378Z,89.41
2023-03-03T10:55:24.386Z,89.54
2023-03-03T10:58:05.003Z,89.41
2023-03-03T11:00:45.302Z,88.80
2023-03-03T11:03:38.159Z,88.47
2023-03-03T11:06:25.312Z,89.47
2023-03-03T11:09:01.965Z,89.57
2023-03-03T11:11:54.208Z,89.26
2023-03-03T11:14:47.844Z,89.14
2023-03-03T11:17:49.756Z,87.60
2023-03-03T11:20:38.600Z,88.32
2023-03-03T11:23:40.753Z,88.92
2023-03-03T11:26:33.371Z,89.07
2023-03-03T11:29:28.828Z,89.16
2023-03-03T11:32:27.256Z,87.74
2023-03-03T11:35:29.144Z,88.07
2023-03-03T11:38:31.478Z,87.77
2023-03-03T11:41:23.358Z,87.85
2023-03-03T11:44:00.566Z,87.76
2023-03-03T11:46:42.614Z,87.17
2023-03-03T11:49:25.063Z,87.14
2023-03-03T11:52:24.139Z,87.18
2023-03-03T11:55:07.767Z,86.94
2023-03-03T11:57:45.534Z,86.94
2023-03-03T12:00:31.854Z,86.54
2023-03-03T12:03:47.797Z,86.35
2023-03-03T12:06:24.893Z,86.38
2023-03-03T12:09:12.838Z,85.88
2023-03-03T12:12:00.794Z,86.18
2023-03-03T12:14:50.698Z,86.00
2023-03-03T12:17:36.886Z,86.04
2023-03-03T12:20:13.425Z,85.90
2023-03-03T12:23:06.898Z,84.61
2023-03-03T12:25:46.131Z,84.54
2023-03-03T12:28:27.600Z,84.11
2023-03-03T12:31:22.760Z,83.58
2023-03-03T12:34:17.281Z,82.63
2023-03-03T12:37:31.709Z,82.82
2023-03-03T12:40:08.726Z,83.03
2023-03-03T12:42:58.763Z,82.89
2023-03-03T12:45:50.777Z,82.32
2023-03-03T12:48:27.929Z,82.77
2023-03-03T12:51:14.458Z,82.72
2023-03-03T12:54:12.792Z,82.57
2023-03-03T12:56:57.770Z,82.86
2023-03-03T12:59:51.822Z,82.96
2023-03-03T13:02:46.823Z,83.00
2023-03-03T13:05:59.873Z,83.41
2023-03-03T13:08:40.078Z,83.22
2023-03-03T13:11:29.605Z,82.42
2023-03-03T13:14:31.573Z,82.52
2023-03-03T13:17:19.627Z,82.43
2023-03-03T13:20:04.688Z,82.42
2023-03-03T13:22:50.960Z,82.68
2023-03-03T13:25:53.665Z,82.79
2023-03-03T13:28:40.457Z,82.75
2023-03-03T13:31:21.727Z,83.19
2023-03-03T13:33:56.327Z,83.34
2023-03-03T13:36:55.970Z,82.39
2023-03-03T13:39:35.003Z,83.41
2023-03-03T13:42:29.730Z,83.30
2023-03-03T13:45:03.042Z,81.21
2023-03-03T13:47:37.381Z,81.78
2023-03-03T13:50:30.291Z,81.11
2023-03-03T13:53:20.078Z,78.51
2023-03-03T13:56:33.511Z,77.93
2023-03-03T13:59:42.343Z,78.37
2023-03-03T14:02:47.959Z,78.02
2023-03-03T14:05:28.387Z,79.47
2023-03-03T14:08:07.809Z,79.08
2023-03-03T14:11:02.473Z,79.51
2023-03-03T14:13:55.115Z,78.95
2023-03-03T14:16:51.350Z,76.85
2023-03-03T14:19:34.463Z,77.89
2023-03-03T14:22:23.935Z,78.58
2023-03-03T14:25:12.365Z,78.13
2023-03-03T14:27:46.707Z,77.99
2023-03-03T14:30:36.526Z,77.19
2023-03-03T14:33:07.907Z,77.22
2023-03-03T14:35:42.437Z,77.00
2023-03-03T14:38:23.625Z,77.23
2023-03-03T14:41:18.021Z,77.48
2023-03-03T14:44:22.872Z,77.00
2023-03-03T14:47:10.253Z,78.29
2023-03-03T14:49:41.762Z,78.14
2023-03-03T14:52:15.821Z,78.53
2023-03-03T14:54:56.077Z,76.78
2023-03-03T14:57:46.057Z,76.84
2023-03-03T15:00:23.114Z,78.04
2023-03-03T15:03:27.150Z,77.64
2023-03-03T15:05:58.631Z,78.05
2023-03-03T15:08:36.031Z,77.06
2023-03-03T15:11:27.141Z,76.71
2023-03-03T15:14:14.756Z,74.82
2023-03-03T15:16:46.596Z,75.86
2023-03-03T15:19:37.922Z,76.59
2023-03-03T15:22:18.863Z,76.99
2023-03-03T15:25:00.197Z,77.36
2023-03-03T15:28:06.057Z,77.78
2023-03-03T15:30:47.060Z,77.23
2023-03-03T15:33:34.506Z,77.94
2023-03-03T15:36:21.170Z,77.79
2023-03-03T15:39:01.675Z,78.15
2023-03-03T15:41:47.724Z,78.35
2023-03-03T15:44:37.177Z,78.18
2023-03-03T15:47:21.394Z,77.76
2023-03-03T15:50:11.610Z,77.61
2023-03-03T15:52:56.262Z,78.07
2023-03-03T15:55:55.449Z,78.01
2023-03-03T15:59:07.739Z,77.44
2023-03-03T16:02:11.883Z,78.25
2023-03-03T16:04:54.778Z,77.26
2023-03-03T16:07:37.197Z,78.30
2023-03-03T16:10:22.376Z,77.44
2023-03-03T16:13:21.794Z,78.17
2023-03-03T16:16:02.367Z,78.21
2023-03-03T16:19:14.918Z,78.39
2023-03-03T16:22:17.227Z,78.15
2023-03-03T16:25:09.742Z,78.24
2023-03-03T16:27:53.739Z,78.60
2023-03-03T16:30:37.499Z,78.40
2023-03-03T16:33:19.490Z,78.60
2023-03-03T16:36:12.735Z,77.56
2023-03-03T16:38:53.049Z,78.66
2023-03-03T16:41:52.914Z,79.02
2023-03-03T16:44:38.747Z,79.21
2023-03-03T16:47:26.822Z,79.20
2023-03-03T16:50:17.800Z,79.37
2023-03-03T16:52:56.778Z,79.37
2023-03-03T16:55:48.435Z,79.65
2023-03-03T16:58:33.818Z,79.55
2023-03-03T17:01:31.331Z,79.55
2023-03-03T17:04:30.109Z,79.70
2023-03-03T17:07:23.071Z,80.07
2023-03-03T17:10:20.675Z,79.87
2023-03-03T17:13:15.810Z,80.44
2023-03-03T17:16:02.957Z,80.23
2023-03-03T17:18:50.141Z,80.30
2023-03-03T17:21:30.873Z,80.00
2023-03-03T17:24:21.094Z,80.12
2023-03-03T17:27:15.027Z,80.16
2023-03-03T17:29:54.988Z,80.53
2023-03-03T17:32:57.973Z,80.30
2023-03-03T17:35:54.116Z,80.71
2023-03-03T17:38:34.727Z,80.64
2023-03-03T17:41:14.873Z,80.62
2023-03-03T17:43:53.202Z,80.27
2023-03-03T17:46:39.060Z,80.39
2023-03-03T17:49:34.782Z,80.87
2023-03-03T17:52:08.985Z,80.53
2023-03-03T17:54:54.176Z,80.67
2023-03-03T17:57:45.409Z,80.46
2023-03-03T18:00:37.748Z,81.12
2023-03-03T18:03:34.427Z,80.13
2023-03-03T18:06:32.559Z,80.66
2023-03-03T18:09:15.615Z,81.50
2023-03-03T18:12:12.123Z,80.70
2023-03-03T18:15:11.515Z,80.45
2023-03-03T18:17:46.283Z,80.39
2023-03-03T18:20:34.597Z,80.43
2023-03-03T18:23:28.117Z,80.33
2023-03-03T18:26:08.077Z,81.12
2023-03-03T18:29:06.672Z,81.20
2023-03-03T18:31:57.751Z,81.06
2023-03-03T18:34:37.161Z,80.68
2023-03-03T18:37:31.466Z,81.08
2023-03-03T18:40:02.692Z,81.26
2023-03-03T18:42:40.204Z,81.35
2023-03-03T18:45:17.592Z,81.47
2023-03-03T18:48:01.096Z,80.30
2023-03-03T18:50:35.042Z,81.30
2023-03-03T18:53:19.786Z,81.81
2023-03-03T18:55:59.302Z,81.22
2023-03-03T18:58:38.328Z,80.97
2023-03-03T19:01:31.602Z,81.77
2023-03-03T19:04:16.275Z,81.58
2023-03-03T19:06:47.511Z,81.12
2023-03-03T19:09:40.187Z,80.95
2023-03-03T19:12:13.557Z,81.59
2023-03-03T19:14:47.476Z,80.95
2023-03-03T19:17:18.698Z,81.48
2023-03-03T19:20:12.294Z,81.75
2023-03-03T19:23:05.279Z,81.64
2023-03-03T19:25:37.894Z,81.69
2023-03-03T19:28:15.086Z,82.15
2023-03-03T19:31:17.117Z,82.13
2023-03-03T19:34:07.388Z,82.05
2023-03-03T19:37:15.865Z,81.98
2023-03-03T19:39:57.819Z,81.80
2023-03-03T19:43:00.870Z,82.62
2023-03-03T19:45:49.151Z,82.80
2023-03-03T19:48:20.392Z,82.45
2023-03-03T19:51:10.245Z,82.40
2023-03-03T19:53:58.766Z,82.65
2023-03-03T19:56:47.203Z,82.58
2023-03-03T19:59:40.478Z,83.19
2023-03-03T20:02:28.401Z,82.93
2023-03-03T20:05:24.838Z,82.99
2023-03-03T20:08:24.621Z,83.32
2023-03-03T20:11:17.307Z,83.55
2023-03-03T20:14:00.992Z,84.28
2023-03-03T20:16:42.697Z,83.29
2023-03-03T20:19:28.727Z,84.22
2023-03-03T20:22:34.913Z,83.78
2023-03-03T20:25:21.507Z,83.36
2023-03-03T20:28:21.452Z,83.46
2023-03-03T20:31:14.701Z,83.84
2023-03-03T20:34:07.862Z,84.54
2023-03-03T20:37:02.161Z,84.17
2023-03-03T20:40:02.195Z,84.13
2023-03-03T20:42:49.867Z,83.75
2023-03-03T20:46:10.483Z,84.20
2023-03-03T20:49:19.157Z,84.12
2023-03-03T20:52:30.112Z,84.42
2023-03-03T20:55:27.802Z,84.25
2023-03-03T20:58:20.819Z,83.67
2023-03-03T21:01:10.401Z,84.45
2023-03-03T21:03:44.769Z,84.84
2023-03-03T21:06:19.494Z,84.29
2023-03-03T21:08:56.063Z,83.95
2023-03-03T21:11:30.394Z,84.38
2023-03-03T21:14:16.621Z,84.06
2023-03-03T21:16:50.241Z,84.64
2023-03-03T21:19:31.634Z,83.91
2023-03-03T21:22:03.423Z,84.48
2023-03-03T21:24:50.080Z,85.08
2023-03-03T21:27:31.344Z,85.14
2023-03-03T21:30:07.841Z,84.84
2023-03-03T21:32:47.866Z,84.42
2023-03-03T21:35:21.648Z,84.25
2023-03-03T21:37:57.465Z,84.80
2023-03-03T21:40:30.185Z,84.87
2023-03-03T21:43:01.482Z,85.15
2023-03-03T21:45:32.809Z,85.13
2023-03-03T21:48:04.546Z,85.35
2023-03-03T21:50:36.052Z,84.73
2023-03-03T21:53:07.312Z,85.36
2023-03-03T21:55:38.574Z,85.06
2023-03-03T21:58:09.880Z,85.66
2023-03-03T22:00:42.803Z,85.67
2023-03-03T22:03:15.562Z,85.18
2023-03-03T22:05:48.914Z,85.50
2023-03-03T22:08:23.245Z,84.88
2023-03-03T22:10:56.094Z,85.59
2023-03-03T22:13:27.671Z,85.56
2023-03-03T22:15:59.168Z,85.17
2023-03-03T22:18:30.482Z,85.80
2023-03-03T22:21:01.838Z,85.28
2023-03-03T22:23:33.252Z,86.20
2023-03-03T22:26:04.654Z,85.78
2023-03-03T22:28:35.938Z,85.87
2023-03-03T22:31:07.492Z,85.80
2023-03-03T22:33:38.856Z,86.27
2023-03-03T22:36:10.596Z,86.20
2023-03-03T22:38:42.330Z,86.38
2023-03-03T22:41:14.395Z,85.96
2023-03-03T22:43:47.799Z,86.06
2023-03-03T22:46:19.072Z,86.09
2023-03-03T22:48:50.506Z,85.68
2023-03-03T22:51:22.088Z,86.14
2023-03-03T22:53:53.367Z,86.21
2023-03-03T22:56:24.797Z,86.01
2023-03-03T22:58:56.132Z,86.36
2023-03-03T23:01:27.612Z,85.82
2023-03-03T23:03:58.888Z,85.88
2023-03-03T23:06:30.155Z,85.79
2023-03-03T23:09:01.468Z,85.78
2023-03-03T23:11:32.741Z,85.75
2023-03-03T23:14:04.065Z,86.34
2023-03-03T23:16:35.326Z,86.32
2023-03-03T23:19:06.652Z,85.92
2023-03-03T23:21:38.032Z,86.60
2023-03-03T23:24:11.023Z,86.06
2023-03-03T23:26:42.324Z,85.80
2023-03-03T23:29:13.671Z,86.50
2023-03-03T23:31:45.170Z,86.05
2023-03-03T23:34:16.506Z,86.37
2023-03-03T23:36:47.990Z,86.13
2023-03-03T23:39:19.312Z,86.49
2023-03-03T23:41:50.600Z,86.33
2023-03-03T23:44:21.933Z,86.30
2023-03-03T23:46:53.233Z,86.84
2023-03-03T23:49:24.944Z,86.22
2023-03-03T23:51:56.229Z,86.64
2023-03-03T23:54:27.845Z,86.78
2023-03-03T23:56:59.165Z,86.67
2023-03-03T23:59:30.465Z,86.44
